Terminal Aerodrome Forecast
Issued by NWS Oklahoma City, OK

Home | Current Version | Previous Version | Text Only | Print | Product List | Glossary On
Versions: 1 2 3 4 5 6 7 8 9 10 11 12 13 14 15 16 17 18 19 20 21 22 23 24 25 26 27 28 29 30
548
FTUS44 KOUN 161720
TAFOUN
TAF
KOUN 161720Z 1618/1718 16011KT 1SM BR OVC003
     FM162000 17012KT 5SM BR OVC007
     FM162200 18012KT P6SM BKN015
     FM170800 31012KT 2SM BR OVC004
     FM171400 34009KT 6SM BR OVC007=

USA.gov is the U.S. government's official web portal to all federal, state and local government web resources and services.